sensor_id;sensor_type;location;lat;lon;timestamp;P1;durP1;ratioP1;P2;durP2;ratioP2
26391;SDS011;14572;43.120;1.178;2023-03-18T00:00:26;12.10;;;2.10;;
26391;SDS011;14572;43.120;1.178;2023-03-18T00:02:54;18.80;;;1.98;;
26391;SDS011;14572;43.120;1.178;2023-03-18T00:05:22;10.48;;;1.60;;
26391;SDS011;14572;43.120;1.178;2023-03-18T00:07:49;13.32;;;2.22;;
26391;SDS011;14572;43.120;1.178;2023-03-18T00:10:17;11.10;;;1.77;;
26391;SDS011;14572;43.120;1.178;2023-03-18T00:12:44;11.30;;;1.90;;
26391;SDS011;14572;43.120;1.178;2023-03-18T00:15:13;12.73;;;2.08;;
26391;SDS011;14572;43.120;1.178;2023-03-18T00:17:42;12.00;;;1.60;;
26391;SDS011;14572;43.120;1.178;2023-03-18T00:20:10;12.98;;;1.73;;
26391;SDS011;14572;43.120;1.178;2023-03-18T00:22:39;12.38;;;1.92;;
26391;SDS011;14572;43.120;1.178;2023-03-18T00:25:08;16.90;;;2.13;;
26391;SDS011;14572;43.120;1.178;2023-03-18T00:27:36;17.17;;;2.10;;
26391;SDS011;14572;43.120;1.178;2023-03-18T00:30:06;11.45;;;1.73;;
26391;SDS011;14572;43.120;1.178;2023-03-18T00:32:34;7.53;;;1.33;;
26391;SDS011;14572;43.120;1.178;2023-03-18T00:35:01;11.18;;;2.28;;
26391;SDS011;14572;43.120;1.178;2023-03-18T00:37:28;12.25;;;1.80;;
26391;SDS011;14572;43.120;1.178;2023-03-18T00:39:58;14.45;;;2.42;;
26391;SDS011;14572;43.120;1.178;2023-03-18T00:42:30;12.60;;;1.45;;
26391;SDS011;14572;43.120;1.178;2023-03-18T00:45:01;14.85;;;1.90;;
26391;SDS011;14572;43.120;1.178;2023-03-18T00:47:30;10.35;;;1.75;;
26391;SDS011;14572;43.120;1.178;2023-03-18T00:49:57;16.05;;;1.85;;
26391;SDS011;14572;43.120;1.178;2023-03-18T00:52:24;11.13;;;2.35;;
26391;SDS011;14572;43.120;1.178;2023-03-18T00:54:51;13.32;;;1.70;;
26391;SDS011;14572;43.120;1.178;2023-03-18T00:57:20;15.35;;;1.85;;
26391;SDS011;14572;43.120;1.178;2023-03-18T00:59:48;13.05;;;1.75;;
26391;SDS011;14572;43.120;1.178;2023-03-18T01:02:16;11.43;;;1.98;;
26391;SDS011;14572;43.120;1.178;2023-03-18T01:04:43;9.73;;;1.88;;
26391;SDS011;14572;43.120;1.178;2023-03-18T01:07:10;18.42;;;1.83;;
26391;SDS011;14572;43.120;1.178;2023-03-18T01:09:38;10.60;;;1.77;;
26391;SDS011;14572;43.120;1.178;2023-03-18T01:12:06;12.57;;;2.03;;
26391;SDS011;14572;43.120;1.178;2023-03-18T01:14:36;16.92;;;1.90;;
26391;SDS011;14572;43.120;1.178;2023-03-18T01:17:04;15.77;;;1.60;;
26391;SDS011;14572;43.120;1.178;2023-03-18T01:19:32;12.00;;;1.73;;
26391;SDS011;14572;43.120;1.178;2023-03-18T01:21:59;12.65;;;2.13;;
26391;SDS011;14572;43.120;1.178;2023-03-18T01:24:27;11.38;;;1.73;;
26391;SDS011;14572;43.120;1.178;2023-03-18T01:26:54;8.45;;;1.52;;
26391;SDS011;14572;43.120;1.178;2023-03-18T01:29:22;8.23;;;1.50;;
26391;SDS011;14572;43.120;1.178;2023-03-18T01:31:50;12.05;;;1.90;;
26391;SDS011;14572;43.120;1.178;2023-03-18T01:34:19;7.90;;;1.52;;
26391;SDS011;14572;43.120;1.178;2023-03-18T01:36:46;12.68;;;1.70;;
26391;SDS011;14572;43.120;1.178;2023-03-18T01:39:14;10.95;;;1.92;;
26391;SDS011;14572;43.120;1.178;2023-03-18T01:41:41;7.63;;;1.70;;
26391;SDS011;14572;43.120;1.178;2023-03-18T01:44:11;14.45;;;2.00;;
26391;SDS011;14572;43.120;1.178;2023-03-18T01:46:40;10.32;;;1.67;;
26391;SDS011;14572;43.120;1.178;2023-03-18T01:49:13;8.82;;;1.60;;
26391;SDS011;14572;43.120;1.178;2023-03-18T01:51:44;10.93;;;1.65;;
26391;SDS011;14572;43.120;1.178;2023-03-18T01:54:15;13.13;;;2.00;;
26391;SDS011;14572;43.120;1.178;2023-03-18T01:56:43;8.55;;;2.00;;
26391;SDS011;14572;43.120;1.178;2023-03-18T01:59:12;12.80;;;1.55;;
26391;SDS011;14572;43.120;1.178;2023-03-18T02:01:41;7.30;;;1.80;;
26391;SDS011;14572;43.120;1.178;2023-03-18T02:04:13;9.57;;;1.30;;
26391;SDS011;14572;43.120;1.178;2023-03-18T02:06:40;5.88;;;1.35;;
26391;SDS011;14572;43.120;1.178;2023-03-18T02:09:08;8.10;;;1.60;;
26391;SDS011;14572;43.120;1.178;2023-03-18T02:11:37;11.02;;;1.63;;
26391;SDS011;14572;43.120;1.178;2023-03-18T02:14:05;10.95;;;1.58;;
26391;SDS011;14572;43.120;1.178;2023-03-18T02:16:33;9.15;;;1.48;;
26391;SDS011;14572;43.120;1.178;2023-03-18T02:19:06;12.18;;;1.83;;
26391;SDS011;14572;43.120;1.178;2023-03-18T02:21:39;9.45;;;1.35;;
26391;SDS011;14572;43.120;1.178;2023-03-18T02:24:14;11.68;;;2.10;;
26391;SDS011;14572;43.120;1.178;2023-03-18T02:26:49;10.27;;;2.10;;
26391;SDS011;14572;43.120;1.178;2023-03-18T02:29:20;9.20;;;1.80;;
26391;SDS011;14572;43.120;1.178;2023-03-18T02:31:47;12.55;;;2.33;;
26391;SDS011;14572;43.120;1.178;2023-03-18T02:34:16;13.05;;;2.42;;
26391;SDS011;14572;43.120;1.178;2023-03-18T02:36:44;8.93;;;1.92;;
26391;SDS011;14572;43.120;1.178;2023-03-18T02:39:12;17.17;;;3.00;;
26391;SDS011;14572;43.120;1.178;2023-03-18T02:41:40;11.32;;;3.00;;
26391;SDS011;14572;43.120;1.178;2023-03-18T02:44:08;12.75;;;2.75;;
26391;SDS011;14572;43.120;1.178;2023-03-18T02:46:40;13.40;;;3.35;;
26391;SDS011;14572;43.120;1.178;2023-03-18T02:49:13;12.13;;;2.83;;
26391;SDS011;14572;43.120;1.178;2023-03-18T02:51:41;10.82;;;2.78;;
26391;SDS011;14572;43.120;1.178;2023-03-18T02:54:09;8.98;;;2.60;;
26391;SDS011;14572;43.120;1.178;2023-03-18T02:56:37;6.65;;;2.45;;
26391;SDS011;14572;43.120;1.178;2023-03-18T02:59:05;10.77;;;2.15;;
26391;SDS011;14572;43.120;1.178;2023-03-18T03:01:33;13.02;;;2.28;;
26391;SDS011;14572;43.120;1.178;2023-03-18T03:04:02;4.82;;;2.00;;
26391;SDS011;14572;43.120;1.178;2023-03-18T03:06:31;19.73;;;3.35;;
26391;SDS011;14572;43.120;1.178;2023-03-18T03:08:58;15.65;;;2.70;;
26391;SDS011;14572;43.120;1.178;2023-03-18T03:11:27;17.20;;;2.92;;
26391;SDS011;14572;43.120;1.178;2023-03-18T03:13:54;18.88;;;2.90;;
26391;SDS011;14572;43.120;1.178;2023-03-18T03:16:22;11.50;;;2.40;;
26391;SDS011;14572;43.120;1.178;2023-03-18T03:18:49;9.07;;;2.35;;
26391;SDS011;14572;43.120;1.178;2023-03-18T03:21:17;11.93;;;2.38;;
26391;SDS011;14572;43.120;1.178;2023-03-18T03:23:45;12.20;;;2.35;;
26391;SDS011;14572;43.120;1.178;2023-03-18T03:26:13;10.38;;;2.78;;
26391;SDS011;14572;43.120;1.178;2023-03-18T03:28:41;9.48;;;2.45;;
26391;SDS011;14572;43.120;1.178;2023-03-18T03:31:08;8.30;;;2.10;;
26391;SDS011;14572;43.120;1.178;2023-03-18T03:33:36;8.82;;;2.70;;
26391;SDS011;14572;43.120;1.178;2023-03-18T03:36:06;11.48;;;2.53;;
26391;SDS011;14572;43.120;1.178;2023-03-18T03:38:35;9.52;;;2.70;;
26391;SDS011;14572;43.120;1.178;2023-03-18T03:41:03;18.45;;;3.30;;
26391;SDS011;14572;43.120;1.178;2023-03-18T03:43:30;9.30;;;3.20;;
26391;SDS011;14572;43.120;1.178;2023-03-18T03:45:58;11.48;;;3.42;;
26391;SDS011;14572;43.120;1.178;2023-03-18T03:48:25;12.95;;;3.08;;
26391;SDS011;14572;43.120;1.178;2023-03-18T03:50:52;12.00;;;3.30;;
26391;SDS011;14572;43.120;1.178;2023-03-18T03:53:20;10.07;;;3.42;;
26391;SDS011;14572;43.120;1.178;2023-03-18T03:55:50;14.95;;;3.17;;
26391;SDS011;14572;43.120;1.178;2023-03-18T03:58:17;12.32;;;2.83;;
26391;SDS011;14572;43.120;1.178;2023-03-18T04:00:45;18.23;;;3.67;;
26391;SDS011;14572;43.120;1.178;2023-03-18T04:03:12;12.95;;;3.15;;
26391;SDS011;14572;43.120;1.178;2023-03-18T04:05:39;13.85;;;3.40;;
26391;SDS011;14572;43.120;1.178;2023-03-18T04:08:07;12.77;;;3.10;;
26391;SDS011;14572;43.120;1.178;2023-03-18T04:10:34;17.05;;;3.30;;
26391;SDS011;14572;43.120;1.178;2023-03-18T04:13:04;10.32;;;3.30;;
26391;SDS011;14572;43.120;1.178;2023-03-18T04:15:33;16.38;;;2.92;;
26391;SDS011;14572;43.120;1.178;2023-03-18T04:18:00;15.55;;;3.40;;
26391;SDS011;14572;43.120;1.178;2023-03-18T04:20:31;11.55;;;2.95;;
26391;SDS011;14572;43.120;1.178;2023-03-18T04:22:59;14.10;;;2.88;;
26391;SDS011;14572;43.120;1.178;2023-03-18T04:25:27;14.00;;;3.10;;
26391;SDS011;14572;43.120;1.178;2023-03-18T04:27:54;15.48;;;2.78;;
26391;SDS011;14572;43.120;1.178;2023-03-18T04:30:23;14.80;;;3.00;;
26391;SDS011;14572;43.120;1.178;2023-03-18T04:32:51;13.15;;;2.65;;
26391;SDS011;14572;43.120;1.178;2023-03-18T04:35:19;15.55;;;2.90;;
26391;SDS011;14572;43.120;1.178;2023-03-18T04:37:47;11.63;;;2.90;;
26391;SDS011;14572;43.120;1.178;2023-03-18T04:40:14;7.97;;;2.58;;
26391;SDS011;14572;43.120;1.178;2023-03-18T04:42:42;18.70;;;3.70;;
26391;SDS011;14572;43.120;1.178;2023-03-18T04:45:12;12.73;;;3.42;;
26391;SDS011;14572;43.120;1.178;2023-03-18T04:47:42;21.55;;;4.72;;
26391;SDS011;14572;43.120;1.178;2023-03-18T04:50:10;15.70;;;3.40;;
26391;SDS011;14572;43.120;1.178;2023-03-18T04:52:38;9.40;;;3.20;;
26391;SDS011;14572;43.120;1.178;2023-03-18T04:55:06;14.00;;;4.20;;
26391;SDS011;14572;43.120;1.178;2023-03-18T04:57:34;13.88;;;4.10;;
26391;SDS011;14572;43.120;1.178;2023-03-18T05:00:03;10.73;;;3.08;;
26391;SDS011;14572;43.120;1.178;2023-03-18T05:02:31;11.85;;;2.63;;
26391;SDS011;14572;43.120;1.178;2023-03-18T05:05:01;12.95;;;3.33;;
26391;SDS011;14572;43.120;1.178;2023-03-18T05:07:28;10.73;;;2.72;;
26391;SDS011;14572;43.120;1.178;2023-03-18T05:09:56;13.07;;;3.15;;
26391;SDS011;14572;43.120;1.178;2023-03-18T05:12:23;10.18;;;2.95;;
26391;SDS011;14572;43.120;1.178;2023-03-18T05:14:50;9.95;;;3.10;;
26391;SDS011;14572;43.120;1.178;2023-03-18T05:17:18;13.43;;;4.15;;
26391;SDS011;14572;43.120;1.178;2023-03-18T05:19:46;18.05;;;5.38;;
26391;SDS011;14572;43.120;1.178;2023-03-18T05:22:16;26.52;;;9.88;;
26391;SDS011;14572;43.120;1.178;2023-03-18T05:24:44;20.92;;;9.45;;
26391;SDS011;14572;43.120;1.178;2023-03-18T05:27:11;21.70;;;7.43;;
26391;SDS011;14572;43.120;1.178;2023-03-18T05:29:39;17.52;;;6.90;;
26391;SDS011;14572;43.120;1.178;2023-03-18T05:32:07;25.65;;;7.40;;
26391;SDS011;14572;43.120;1.178;2023-03-18T05:34:35;24.08;;;5.88;;
26391;SDS011;14572;43.120;1.178;2023-03-18T05:37:03;19.15;;;5.32;;
26391;SDS011;14572;43.120;1.178;2023-03-18T05:39:32;13.63;;;5.13;;
26391;SDS011;14572;43.120;1.178;2023-03-18T05:42:00;11.38;;;5.00;;
26391;SDS011;14572;43.120;1.178;2023-03-18T05:44:28;14.38;;;4.10;;
26391;SDS011;14572;43.120;1.178;2023-03-18T05:46:56;14.40;;;4.63;;
26391;SDS011;14572;43.120;1.178;2023-03-18T05:49:23;11.75;;;3.88;;
26391;SDS011;14572;43.120;1.178;2023-03-18T05:51:51;15.93;;;3.72;;
26391;SDS011;14572;43.120;1.178;2023-03-18T05:54:18;18.05;;;4.13;;
26391;SDS011;14572;43.120;1.178;2023-03-18T05:56:47;9.30;;;3.72;;
26391;SDS011;14572;43.120;1.178;2023-03-18T05:59:16;14.68;;;3.95;;
26391;SDS011;14572;43.120;1.178;2023-03-18T06:01:43;11.95;;;3.95;;
26391;SDS011;14572;43.120;1.178;2023-03-18T06:04:12;10.68;;;4.28;;
26391;SDS011;14572;43.120;1.178;2023-03-18T06:06:41;10.60;;;4.30;;
26391;SDS011;14572;43.120;1.178;2023-03-18T06:09:09;14.93;;;4.25;;
26391;SDS011;14572;43.120;1.178;2023-03-18T06:11:38;12.38;;;4.28;;
26391;SDS011;14572;43.120;1.178;2023-03-18T06:14:07;15.55;;;3.60;;
26391;SDS011;14572;43.120;1.178;2023-03-18T06:16:34;14.60;;;3.80;;
26391;SDS011;14572;43.120;1.178;2023-03-18T06:19:02;12.57;;;3.75;;
26391;SDS011;14572;43.120;1.178;2023-03-18T06:21:29;12.20;;;4.18;;
26391;SDS011;14572;43.120;1.178;2023-03-18T06:23:57;13.15;;;3.85;;
26391;SDS011;14572;43.120;1.178;2023-03-18T06:26:25;11.05;;;3.45;;
26391;SDS011;14572;43.120;1.178;2023-03-18T06:28:52;17.02;;;3.75;;
26391;SDS011;14572;43.120;1.178;2023-03-18T06:31:22;11.93;;;3.15;;
26391;SDS011;14572;43.120;1.178;2023-03-18T06:33:51;9.10;;;3.38;;
26391;SDS011;14572;43.120;1.178;2023-03-18T06:36:19;13.57;;;3.67;;
26391;SDS011;14572;43.120;1.178;2023-03-18T06:38:46;11.60;;;3.03;;
26391;SDS011;14572;43.120;1.178;2023-03-18T06:41:13;9.73;;;3.58;;
26391;SDS011;14572;43.120;1.178;2023-03-18T06:43:40;11.77;;;3.55;;
26391;SDS011;14572;43.120;1.178;2023-03-18T06:46:08;13.35;;;3.70;;
26391;SDS011;14572;43.120;1.178;2023-03-18T06:48:36;17.58;;;5.25;;
26391;SDS011;14572;43.120;1.178;2023-03-18T06:51:04;10.57;;;3.03;;
26391;SDS011;14572;43.120;1.178;2023-03-18T06:53:32;17.42;;;3.25;;
26391;SDS011;14572;43.120;1.178;2023-03-18T06:56:00;12.73;;;3.60;;
26391;SDS011;14572;43.120;1.178;2023-03-18T06:58:28;11.10;;;3.17;;
26391;SDS011;14572;43.120;1.178;2023-03-18T07:00:56;9.80;;;3.13;;
26391;SDS011;14572;43.120;1.178;2023-03-18T07:03:23;11.65;;;4.00;;
26391;SDS011;14572;43.120;1.178;2023-03-18T07:05:53;10.70;;;3.92;;
26391;SDS011;14572;43.120;1.178;2023-03-18T07:08:21;16.08;;;3.85;;
26391;SDS011;14572;43.120;1.178;2023-03-18T07:10:50;14.50;;;4.57;;
26391;SDS011;14572;43.120;1.178;2023-03-18T07:13:18;9.85;;;4.03;;
26391;SDS011;14572;43.120;1.178;2023-03-18T07:15:45;11.23;;;4.38;;
26391;SDS011;14572;43.120;1.178;2023-03-18T07:18:13;11.82;;;4.10;;
26391;SDS011;14572;43.120;1.178;2023-03-18T07:20:40;10.85;;;4.18;;
26391;SDS011;14572;43.120;1.178;2023-03-18T07:23:09;9.15;;;5.07;;
26391;SDS011;14572;43.120;1.178;2023-03-18T07:25:36;12.63;;;3.85;;
26391;SDS011;14572;43.120;1.178;2023-03-18T07:28:03;16.17;;;3.33;;
26391;SDS011;14572;43.120;1.178;2023-03-18T07:30:30;16.73;;;4.80;;
26391;SDS011;14572;43.120;1.178;2023-03-18T07:32:59;11.55;;;4.13;;
26391;SDS011;14572;43.120;1.178;2023-03-18T07:35:28;16.23;;;4.90;;
26391;SDS011;14572;43.120;1.178;2023-03-18T07:37:55;11.65;;;4.28;;
26391;SDS011;14572;43.120;1.178;2023-03-18T07:40:25;8.35;;;4.50;;
26391;SDS011;14572;43.120;1.178;2023-03-18T07:42:52;12.65;;;4.13;;
26391;SDS011;14572;43.120;1.178;2023-03-18T07:45:19;10.38;;;4.32;;
26391;SDS011;14572;43.120;1.178;2023-03-18T07:47:46;14.00;;;4.50;;
26391;SDS011;14572;43.120;1.178;2023-03-18T07:50:14;10.10;;;4.75;;
26391;SDS011;14572;43.120;1.178;2023-03-18T07:52:42;14.05;;;4.88;;
26391;SDS011;14572;43.120;1.178;2023-03-18T07:55:10;8.80;;;4.28;;
26391;SDS011;14572;43.120;1.178;2023-03-18T07:57:39;7.80;;;4.03;;
26391;SDS011;14572;43.120;1.178;2023-03-18T08:00:06;7.20;;;4.18;;
26391;SDS011;14572;43.120;1.178;2023-03-18T08:02:36;9.23;;;4.00;;
26391;SDS011;14572;43.120;1.178;2023-03-18T08:05:04;7.93;;;3.90;;
26391;SDS011;14572;43.120;1.178;2023-03-18T08:07:32;8.95;;;3.67;;
26391;SDS011;14572;43.120;1.178;2023-03-18T08:09:59;10.15;;;3.78;;
26391;SDS011;14572;43.120;1.178;2023-03-18T08:12:27;10.90;;;4.30;;
26391;SDS011;14572;43.120;1.178;2023-03-18T08:14:56;8.40;;;4.13;;
26391;SDS011;14572;43.120;1.178;2023-03-18T08:17:24;6.78;;;4.18;;
26391;SDS011;14572;43.120;1.178;2023-03-18T08:19:52;6.63;;;4.00;;
26391;SDS011;14572;43.120;1.178;2023-03-18T08:22:19;12.38;;;4.53;;
26391;SDS011;14572;43.120;1.178;2023-03-18T08:24:48;8.82;;;4.30;;
26391;SDS011;14572;43.120;1.178;2023-03-18T08:27:16;8.95;;;4.43;;
26391;SDS011;14572;43.120;1.178;2023-03-18T08:29:43;11.05;;;4.13;;
26391;SDS011;14572;43.120;1.178;2023-03-18T08:32:12;11.63;;;4.32;;
26391;SDS011;14572;43.120;1.178;2023-03-18T08:34:39;13.45;;;5.20;;
26391;SDS011;14572;43.120;1.178;2023-03-18T08:37:07;9.93;;;4.55;;
26391;SDS011;14572;43.120;1.178;2023-03-18T08:39:34;8.57;;;4.30;;
26391;SDS011;14572;43.120;1.178;2023-03-18T08:42:01;9.63;;;4.20;;
26391;SDS011;14572;43.120;1.178;2023-03-18T08:44:29;9.15;;;3.80;;
26391;SDS011;14572;43.120;1.178;2023-03-18T08:46:57;8.60;;;4.10;;
26391;SDS011;14572;43.120;1.178;2023-03-18T08:49:27;13.93;;;4.15;;
26391;SDS011;14572;43.120;1.178;2023-03-18T08:51:54;10.07;;;3.92;;
26391;SDS011;14572;43.120;1.178;2023-03-18T08:54:21;15.23;;;4.28;;
26391;SDS011;14572;43.120;1.178;2023-03-18T08:56:48;10.32;;;4.03;;
26391;SDS011;14572;43.120;1.178;2023-03-18T08:59:16;7.60;;;3.97;;
26391;SDS011;14572;43.120;1.178;2023-03-18T09:01:44;9.65;;;3.85;;
26391;SDS011;14572;43.120;1.178;2023-03-18T09:04:12;13.98;;;3.85;;
26391;SDS011;14572;43.120;1.178;2023-03-18T09:06:40;7.82;;;3.90;;
26391;SDS011;14572;43.120;1.178;2023-03-18T09:09:08;7.72;;;3.83;;
26391;SDS011;14572;43.120;1.178;2023-03-18T09:11:35;7.70;;;3.70;;
26391;SDS011;14572;43.120;1.178;2023-03-18T09:14:03;6.63;;;3.08;;
26391;SDS011;14572;43.120;1.178;2023-03-18T09:16:31;9.77;;;3.17;;
26391;SDS011;14572;43.120;1.178;2023-03-18T09:18:59;6.60;;;2.78;;
26391;SDS011;14572;43.120;1.178;2023-03-18T09:21:26;11.23;;;2.90;;
26391;SDS011;14572;43.120;1.178;2023-03-18T09:23:54;9.93;;;3.10;;
26391;SDS011;14572;43.120;1.178;2023-03-18T09:26:22;7.82;;;3.30;;
26391;SDS011;14572;43.120;1.178;2023-03-18T09:28:49;8.80;;;3.63;;
26391;SDS011;14572;43.120;1.178;2023-03-18T09:31:16;7.13;;;3.00;;
26391;SDS011;14572;43.120;1.178;2023-03-18T09:33:44;11.43;;;3.35;;
26391;SDS011;14572;43.120;1.178;2023-03-18T09:36:11;11.02;;;3.17;;
26391;SDS011;14572;43.120;1.178;2023-03-18T09:38:39;8.05;;;2.80;;
26391;SDS011;14572;43.120;1.178;2023-03-18T09:41:12;9.00;;;3.05;;
26391;SDS011;14572;43.120;1.178;2023-03-18T09:43:58;7.38;;;2.83;;
26391;SDS011;14572;43.120;1.178;2023-03-18T09:46:35;9.50;;;2.85;;
26391;SDS011;14572;43.120;1.178;2023-03-18T09:49:11;7.63;;;2.25;;
26391;SDS011;14572;43.120;1.178;2023-03-18T09:51:46;6.50;;;1.95;;
26391;SDS011;14572;43.120;1.178;2023-03-18T09:54:22;12.50;;;2.70;;
26391;SDS011;14572;43.120;1.178;2023-03-18T09:56:58;7.93;;;2.50;;
26391;SDS011;14572;43.120;1.178;2023-03-18T09:59:28;7.05;;;3.20;;
26391;SDS011;14572;43.120;1.178;2023-03-18T10:02:03;12.32;;;3.10;;
26391;SDS011;14572;43.120;1.178;2023-03-18T10:04:41;10.25;;;3.05;;
26391;SDS011;14572;43.120;1.178;2023-03-18T10:07:11;7.97;;;2.78;;
26391;SDS011;14572;43.120;1.178;2023-03-18T10:09:42;6.53;;;2.28;;
26391;SDS011;14572;43.120;1.178;2023-03-18T10:12:13;7.30;;;2.05;;
26391;SDS011;14572;43.120;1.178;2023-03-18T10:14:43;8.30;;;2.00;;
26391;SDS011;14572;43.120;1.178;2023-03-18T10:17:16;5.00;;;1.65;;
26391;SDS011;14572;43.120;1.178;2023-03-18T10:19:45;6.63;;;1.70;;
26391;SDS011;14572;43.120;1.178;2023-03-18T10:22:18;8.20;;;2.55;;
26391;SDS011;14572;43.120;1.178;2023-03-18T10:24:54;7.32;;;2.80;;
26391;SDS011;14572;43.120;1.178;2023-03-18T10:27:31;5.70;;;2.38;;
26391;SDS011;14572;43.120;1.178;2023-03-18T10:30:11;5.50;;;2.00;;
26391;SDS011;14572;43.120;1.178;2023-03-18T10:32:50;8.05;;;2.00;;
26391;SDS011;14572;43.120;1.178;2023-03-18T10:35:25;5.60;;;2.00;;
26391;SDS011;14572;43.120;1.178;2023-03-18T10:37:56;7.10;;;1.88;;
26391;SDS011;14572;43.120;1.178;2023-03-18T10:40:26;5.70;;;2.33;;
26391;SDS011;14572;43.120;1.178;2023-03-18T10:43:00;5.85;;;2.22;;
26391;SDS011;14572;43.120;1.178;2023-03-18T10:45:29;8.00;;;2.65;;
26391;SDS011;14572;43.120;1.178;2023-03-18T10:47:58;5.80;;;1.45;;
26391;SDS011;14572;43.120;1.178;2023-03-18T10:50:31;11.25;;;1.80;;
26391;SDS011;14572;43.120;1.178;2023-03-18T10:53:03;5.60;;;1.35;;
26391;SDS011;14572;43.120;1.178;2023-03-18T10:55:37;10.70;;;1.48;;
26391;SDS011;14572;43.120;1.178;2023-03-18T10:58:14;7.85;;;1.42;;
26391;SDS011;14572;43.120;1.178;2023-03-18T11:00:43;9.63;;;1.10;;
26391;SDS011;14572;43.120;1.178;2023-03-18T11:03:15;8.63;;;1.50;;
26391;SDS011;14572;43.120;1.178;2023-03-18T11:05:46;7.80;;;1.50;;
26391;SDS011;14572;43.120;1.178;2023-03-18T11:11:21;6.82;;;1.40;;
26391;SDS011;14572;43.120;1.178;2023-03-18T11:13:55;4.50;;;0.77;;
26391;SDS011;14572;43.120;1.178;2023-03-18T11:16:23;5.22;;;1.00;;
26391;SDS011;14572;43.120;1.178;2023-03-18T11:18:55;8.95;;;1.30;;
26391;SDS011;14572;43.120;1.178;2023-03-18T11:21:24;4.00;;;0.93;;
26391;SDS011;14572;43.120;1.178;2023-03-18T11:23:55;5.03;;;1.15;;
26391;SDS011;14572;43.120;1.178;2023-03-18T11:26:45;8.95;;;1.42;;
26391;SDS011;14572;43.120;1.178;2023-03-18T11:29:20;3.75;;;1.20;;
26391;SDS011;14572;43.120;1.178;2023-03-18T11:31:50;5.53;;;1.55;;
26391;SDS011;14572;43.120;1.178;2023-03-18T11:34:19;5.78;;;1.00;;
26391;SDS011;14572;43.120;1.178;2023-03-18T11:36:53;6.90;;;1.00;;
26391;SDS011;14572;43.120;1.178;2023-03-18T11:39:23;5.05;;;1.15;;
26391;SDS011;14572;43.120;1.178;2023-03-18T11:41:51;5.20;;;0.98;;
26391;SDS011;14572;43.120;1.178;2023-03-18T11:44:23;8.02;;;1.08;;
26391;SDS011;14572;43.120;1.178;2023-03-18T11:46:54;4.53;;;1.02;;
26391;SDS011;14572;43.120;1.178;2023-03-18T11:49:25;6.05;;;1.08;;
26391;SDS011;14572;43.120;1.178;2023-03-18T11:51:55;2.60;;;0.90;;
26391;SDS011;14572;43.120;1.178;2023-03-18T11:57:57;5.68;;;0.75;;
26391;SDS011;14572;43.120;1.178;2023-03-18T12:00:36;5.28;;;0.82;;
26391;SDS011;14572;43.120;1.178;2023-03-18T12:06:28;6.53;;;0.55;;
26391;SDS011;14572;43.120;1.178;2023-03-18T12:08:59;3.95;;;0.70;;
26391;SDS011;14572;43.120;1.178;2023-03-18T12:11:36;2.30;;;0.70;;
26391;SDS011;14572;43.120;1.178;2023-03-18T12:14:12;4.80;;;0.80;;
26391;SDS011;14572;43.120;1.178;2023-03-18T12:16:49;5.10;;;0.82;;
26391;SDS011;14572;43.120;1.178;2023-03-18T12:19:35;1.85;;;0.60;;
26391;SDS011;14572;43.120;1.178;2023-03-18T12:25:06;5.28;;;0.90;;
26391;SDS011;14572;43.120;1.178;2023-03-18T12:27:43;4.35;;;0.85;;
26391;SDS011;14572;43.120;1.178;2023-03-18T12:30:29;3.22;;;0.60;;
26391;SDS011;14572;43.120;1.178;2023-03-18T12:33:06;3.38;;;1.05;;
26391;SDS011;14572;43.120;1.178;2023-03-18T12:35:50;3.08;;;0.77;;
26391;SDS011;14572;43.120;1.178;2023-03-18T12:38:39;3.03;;;0.65;;
26391;SDS011;14572;43.120;1.178;2023-03-18T12:41:12;2.33;;;0.68;;
26391;SDS011;14572;43.120;1.178;2023-03-18T12:43:46;2.90;;;0.80;;
26391;SDS011;14572;43.120;1.178;2023-03-18T12:46:21;3.78;;;0.60;;
26391;SDS011;14572;43.120;1.178;2023-03-18T12:48:53;2.97;;;0.57;;
26391;SDS011;14572;43.120;1.178;2023-03-18T12:51:24;4.85;;;0.90;;
26391;SDS011;14572;43.120;1.178;2023-03-18T12:53:54;4.90;;;0.70;;
26391;SDS011;14572;43.120;1.178;2023-03-18T12:56:23;2.03;;;0.68;;
26391;SDS011;14572;43.120;1.178;2023-03-18T12:58:52;4.35;;;0.80;;
26391;SDS011;14572;43.120;1.178;2023-03-18T13:01:22;2.90;;;0.70;;
26391;SDS011;14572;43.120;1.178;2023-03-18T13:03:57;2.33;;;0.52;;
26391;SDS011;14572;43.120;1.178;2023-03-18T13:06:26;3.00;;;0.60;;
26391;SDS011;14572;43.120;1.178;2023-03-18T13:08:59;3.25;;;0.65;;
26391;SDS011;14572;43.120;1.178;2023-03-18T13:11:40;2.83;;;0.60;;
26391;SDS011;14572;43.120;1.178;2023-03-18T13:14:14;2.03;;;0.63;;
26391;SDS011;14572;43.120;1.178;2023-03-18T13:16:45;3.42;;;0.50;;
26391;SDS011;14572;43.120;1.178;2023-03-18T13:19:15;4.13;;;0.70;;
26391;SDS011;14572;43.120;1.178;2023-03-18T13:21:45;2.70;;;0.55;;
26391;SDS011;14572;43.120;1.178;2023-03-18T13:24:20;4.50;;;0.90;;
26391;SDS011;14572;43.120;1.178;2023-03-18T13:27:01;3.17;;;0.75;;
26391;SDS011;14572;43.120;1.178;2023-03-18T13:29:35;2.88;;;0.60;;
26391;SDS011;14572;43.120;1.178;2023-03-18T13:32:09;4.60;;;0.63;;
26391;SDS011;14572;43.120;1.178;2023-03-18T13:37:58;7.30;;;0.70;;
26391;SDS011;14572;43.120;1.178;2023-03-18T13:40:39;3.75;;;0.70;;
26391;SDS011;14572;43.120;1.178;2023-03-18T13:43:11;3.13;;;1.00;;
26391;SDS011;14572;43.120;1.178;2023-03-18T13:45:41;4.22;;;0.90;;
26391;SDS011;14572;43.120;1.178;2023-03-18T13:48:11;3.08;;;0.70;;
26391;SDS011;14572;43.120;1.178;2023-03-18T13:50:42;2.25;;;0.75;;
26391;SDS011;14572;43.120;1.178;2023-03-18T13:53:17;5.30;;;0.95;;
26391;SDS011;14572;43.120;1.178;2023-03-18T13:55:52;3.45;;;0.75;;
26391;SDS011;14572;43.120;1.178;2023-03-18T13:58:26;5.22;;;0.82;;
26391;SDS011;14572;43.120;1.178;2023-03-18T14:01:10;3.63;;;1.10;;
26391;SDS011;14572;43.120;1.178;2023-03-18T14:03:59;2.80;;;0.88;;
26391;SDS011;14572;43.120;1.178;2023-03-18T14:06:46;6.30;;;0.80;;
26391;SDS011;14572;43.120;1.178;2023-03-18T14:09:22;4.63;;;0.90;;
26391;SDS011;14572;43.120;1.178;2023-03-18T16:54:36;1.98;;;0.73;;
26391;SDS011;14572;43.120;1.178;2023-03-18T16:57:04;3.17;;;0.75;;
26391;SDS011;14572;43.120;1.178;2023-03-18T16:59:34;1.77;;;0.73;;
26391;SDS011;14572;43.120;1.178;2023-03-18T17:05:31;2.47;;;1.15;;
26391;SDS011;14572;43.120;1.178;2023-03-18T17:08:01;2.00;;;0.88;;
26391;SDS011;14572;43.120;1.178;2023-03-18T17:10:30;1.58;;;0.70;;
26391;SDS011;14572;43.120;1.178;2023-03-18T17:13:01;1.73;;;0.57;;
26391;SDS011;14572;43.120;1.178;2023-03-18T17:15:35;0.98;;;0.55;;
26391;SDS011;14572;43.120;1.178;2023-03-18T17:18:17;1.20;;;0.70;;
26391;SDS011;14572;43.120;1.178;2023-03-18T17:20:57;1.98;;;0.90;;
26391;SDS011;14572;43.120;1.178;2023-03-18T17:23:33;1.30;;;0.75;;
26391;SDS011;14572;43.120;1.178;2023-03-18T17:26:08;1.58;;;0.70;;
26391;SDS011;14572;43.120;1.178;2023-03-18T17:28:38;3.08;;;1.10;;
26391;SDS011;14572;43.120;1.178;2023-03-18T17:31:08;1.23;;;1.00;;
26391;SDS011;14572;43.120;1.178;2023-03-18T17:33:35;1.15;;;0.80;;
26391;SDS011;14572;43.120;1.178;2023-03-18T17:36:03;1.92;;;1.10;;
26391;SDS011;14572;43.120;1.178;2023-03-18T17:38:31;2.00;;;0.93;;
26391;SDS011;14572;43.120;1.178;2023-03-18T17:40:59;1.33;;;1.08;;
26391;SDS011;14572;43.120;1.178;2023-03-18T17:43:30;2.85;;;1.60;;
26391;SDS011;14572;43.120;1.178;2023-03-18T17:45:59;3.33;;;0.95;;
26391;SDS011;14572;43.120;1.178;2023-03-18T17:48:27;1.55;;;1.10;;
26391;SDS011;14572;43.120;1.178;2023-03-18T17:50:55;4.18;;;1.10;;
26391;SDS011;14572;43.120;1.178;2023-03-18T17:53:25;2.85;;;1.20;;
26391;SDS011;14572;43.120;1.178;2023-03-18T17:55:53;2.22;;;0.98;;
26391;SDS011;14572;43.120;1.178;2023-03-18T17:58:21;1.35;;;1.00;;